createdAt,value
2023-04-27T00:02:21.214Z,99.90
2023-04-27T00:04:49.578Z,99.90
2023-04-27T00:07:18.036Z,99.90
2023-04-27T00:09:46.364Z,99.90
2023-04-27T00:12:14.609Z,99.90
2023-04-27T00:14:44.098Z,99.90
2023-04-27T00:17:12.174Z,99.90
2023-04-27T00:19:41.892Z,99.90
2023-04-27T00:22:10.215Z,99.90
2023-04-27T00:24:38.217Z,99.90
2023-04-27T00:27:08.068Z,99.90
2023-04-27T00:29:36.114Z,99.90
2023-04-27T00:32:05.914Z,99.90
2023-04-27T00:34:34.033Z,99.90
2023-04-27T00:37:02.122Z,99.90
2023-04-27T00:39:30.181Z,99.90
2023-04-27T00:41:58.322Z,99.90
2023-04-27T00:44:29.060Z,99.90
2023-04-27T00:46:58.810Z,99.90
2023-04-27T00:49:28.798Z,99.90
2023-04-27T00:51:57.289Z,99.90
2023-04-27T00:54:25.932Z,99.90
2023-04-27T00:56:55.446Z,99.90
2023-04-27T00:59:23.716Z,99.90
2023-04-27T01:01:53.735Z,99.90
2023-04-27T01:04:22.044Z,99.90
2023-04-27T01:06:51.727Z,99.90
2023-04-27T01:09:20.287Z,99.90
2023-04-27T01:11:51.228Z,99.90
2023-04-27T01:14:19.282Z,99.90
2023-04-27T01:16:47.436Z,99.90
2023-04-27T01:19:15.904Z,99.90
2023-04-27T01:21:44.614Z,99.90
2023-04-27T01:24:14.138Z,99.90
2023-04-27T01:26:42.212Z,99.90
2023-04-27T01:29:11.731Z,99.90
2023-04-27T01:31:40.484Z,99.90
2023-04-27T01:34:08.588Z,99.90
2023-04-27T01:36:37.385Z,99.90
2023-04-27T01:39:09.293Z,99.90
2023-04-27T01:41:38.883Z,99.90
2023-04-27T01:44:07.165Z,99.90
2023-04-27T01:46:35.469Z,99.90
2023-04-27T01:49:03.694Z,99.90
2023-04-27T01:51:33.018Z,99.90
2023-04-27T01:54:01.552Z,99.90
2023-04-27T01:56:29.676Z,99.90
2023-04-27T01:58:59.095Z,99.90
2023-04-27T02:01:28.143Z,99.90
2023-04-27T02:03:56.332Z,99.90
2023-04-27T02:06:24.537Z,99.90
2023-04-27T02:08:52.669Z,99.90
2023-04-27T02:11:20.679Z,99.90
2023-04-27T02:13:51.809Z,99.90
2023-04-27T02:16:21.844Z,99.90
2023-04-27T02:18:50.192Z,99.90
2023-04-27T02:21:18.268Z,99.90
2023-04-27T02:23:47.068Z,99.90
2023-04-27T02:26:19.546Z,99.90
2023-04-27T02:28:48.128Z,99.90
2023-04-27T02:31:17.008Z,99.90
2023-04-27T02:33:48.378Z,99.90
2023-04-27T02:36:16.352Z,99.90
2023-04-27T02:38:44.462Z,99.90
2023-04-27T02:41:12.672Z,99.90
2023-04-27T02:43:40.704Z,99.90
2023-04-27T02:46:08.767Z,99.90
2023-04-27T02:48:36.829Z,99.90
2023-04-27T02:51:07.694Z,99.90
2023-04-27T02:53:37.508Z,99.90
2023-04-27T02:56:06.709Z,99.90
2023-04-27T02:58:35.073Z,99.90
2023-04-27T03:01:03.612Z,99.90
2023-04-27T03:03:32.003Z,99.90
2023-04-27T03:06:00.276Z,99.90
2023-04-27T03:08:29.913Z,99.90
2023-04-27T03:10:59.355Z,99.90
2023-04-27T03:13:28.056Z,99.90
2023-04-27T03:15:56.169Z,99.90
2023-04-27T03:18:24.307Z,99.90
2023-04-27T03:20:52.385Z,99.90
2023-04-27T03:23:20.723Z,99.90
2023-04-27T03:25:50.220Z,99.90
2023-04-27T03:28:18.237Z,99.90
2023-04-27T03:30:46.871Z,99.90
2023-04-27T03:33:15.676Z,99.90
2023-04-27T03:35:56.409Z,99.90
2023-04-27T03:38:25.013Z,99.90
2023-04-27T03:40:55.207Z,99.90
2023-04-27T03:43:24.356Z,99.90
2023-04-27T03:45:52.835Z,99.90
2023-04-27T03:48:21.736Z,99.90
2023-04-27T03:50:52.709Z,99.90
2023-04-27T03:53:20.898Z,99.90
2023-04-27T03:55:49.783Z,99.90
2023-04-27T03:58:21.959Z,99.90
2023-04-27T04:01:19.687Z,99.90
2023-04-27T04:03:48.677Z,99.90
2023-04-27T04:06:17.026Z,99.90
2023-04-27T04:08:46.836Z,99.90
2023-04-27T04:11:14.916Z,99.90
2023-04-27T04:13:44.278Z,99.90
2023-04-27T04:16:13.683Z,99.90
2023-04-27T04:18:42.184Z,99.90
2023-04-27T04:21:11.589Z,99.90
2023-04-27T04:23:41.327Z,99.90
2023-04-27T04:26:09.985Z,99.90
2023-04-27T04:28:38.450Z,99.90
2023-04-27T04:31:09.753Z,99.90
2023-04-27T04:33:41.873Z,99.90
2023-04-27T04:36:10.926Z,99.90
2023-04-27T04:38:39.255Z,99.90
2023-04-27T04:41:07.216Z,99.90
2023-04-27T04:43:35.339Z,99.90
2023-04-27T04:46:07.938Z,99.90
2023-04-27T04:48:35.943Z,99.90
2023-04-27T04:51:06.138Z,99.90
2023-04-27T04:53:34.886Z,99.90
2023-04-27T04:56:10.150Z,99.90
2023-04-27T04:58:38.298Z,99.90
2023-04-27T05:01:08.327Z,99.90
2023-04-27T05:03:36.441Z,99.90
2023-04-27T05:06:04.732Z,99.90
2023-04-27T05:08:32.695Z,99.90
2023-04-27T05:11:00.617Z,99.90
2023-04-27T05:13:29.056Z,99.90
2023-04-27T05:15:57.084Z,99.90
2023-04-27T05:18:28.083Z,99.90
2023-04-27T05:20:58.818Z,99.90
2023-04-27T05:23:27.260Z,99.90
2023-04-27T05:25:55.372Z,99.90
2023-04-27T05:28:23.400Z,99.90
2023-04-27T05:30:51.410Z,99.90
2023-04-27T05:33:19.296Z,99.90
2023-04-27T05:35:48.580Z,99.90
2023-04-27T05:38:19.243Z,99.90
2023-04-27T05:40:55.622Z,99.90
2023-04-27T05:43:23.666Z,99.90
2023-04-27T05:45:51.830Z,99.90
2023-04-27T05:48:19.997Z,99.90
2023-04-27T05:51:00.339Z,99.90
2023-04-27T05:53:28.302Z,99.90
2023-04-27T05:56:00.955Z,99.90
2023-04-27T05:58:29.043Z,99.90
2023-04-27T06:00:57.553Z,99.90
2023-04-27T06:03:25.762Z,99.90
2023-04-27T06:05:58.901Z,99.90
2023-04-27T06:08:27.961Z,99.90
2023-04-27T06:10:55.970Z,99.90
2023-04-27T06:13:23.992Z,99.90
2023-04-27T06:15:52.038Z,99.90
2023-04-27T06:18:20.021Z,99.90
2023-04-27T06:20:47.991Z,99.90
2023-04-27T06:23:17.384Z,99.90
2023-04-27T06:25:45.461Z,99.90
2023-04-27T06:28:13.449Z,99.90
2023-04-27T06:30:41.398Z,99.90
2023-04-27T06:33:10.233Z,99.90
2023-04-27T06:35:38.437Z,99.90
2023-04-27T06:38:07.693Z,99.90
2023-04-27T06:40:38.011Z,99.90
2023-04-27T06:43:06.786Z,99.90
2023-04-27T06:45:34.898Z,99.90
2023-04-27T06:48:02.985Z,99.90
2023-04-27T06:50:31.048Z,99.90
2023-04-27T06:52:59.024Z,99.90
2023-04-27T06:55:27.034Z,99.90
2023-04-27T06:57:56.346Z,99.90
2023-04-27T07:00:24.601Z,99.90
2023-04-27T07:02:52.793Z,99.90
2023-04-27T07:05:24.083Z,99.90
2023-04-27T07:07:52.018Z,99.90
2023-04-27T07:10:20.119Z,99.90
2023-04-27T07:12:48.049Z,99.90
2023-04-27T07:15:17.342Z,99.90
2023-04-27T07:17:45.350Z,99.90
2023-04-27T07:20:14.221Z,99.90
2023-04-27T07:22:42.232Z,99.90
2023-04-27T07:25:11.354Z,99.90
2023-04-27T07:27:39.761Z,99.90
2023-04-27T07:30:10.271Z,99.90
2023-04-27T07:32:41.705Z,99.90
2023-04-27T07:35:10.828Z,99.90
2023-04-27T07:37:40.369Z,99.70
2023-04-27T07:40:16.279Z,99.70
2023-04-27T07:42:44.778Z,99.60
2023-04-27T07:45:13.043Z,99.00
2023-04-27T07:47:42.564Z,97.80
2023-04-27T07:50:12.673Z,95.90
2023-04-27T07:52:40.718Z,96.20
2023-04-27T07:55:09.844Z,96.20
2023-04-27T07:57:37.786Z,95.60
2023-04-27T08:00:09.001Z,96.00
2023-04-27T08:02:43.466Z,96.00
2023-04-27T08:05:12.341Z,95.40
2023-04-27T08:07:44.657Z,94.40
2023-04-27T08:10:13.172Z,94.30
2023-04-27T08:12:41.184Z,94.50
2023-04-27T08:15:11.633Z,94.20
2023-04-27T08:17:41.150Z,93.70
2023-04-27T08:20:12.367Z,93.60
2023-04-27T08:22:40.428Z,93.30
2023-04-27T08:25:09.554Z,93.10
2023-04-27T08:27:38.674Z,92.90
2023-04-27T08:30:08.503Z,92.60
2023-04-27T08:32:36.589Z,92.10
2023-04-27T08:35:04.855Z,91.70
2023-04-27T08:37:34.148Z,91.30
2023-04-27T08:40:02.136Z,90.80
2023-04-27T08:42:30.650Z,90.60
2023-04-27T08:44:58.573Z,90.40
2023-04-27T08:47:39.012Z,89.20
2023-04-27T08:50:11.197Z,88.00
2023-04-27T08:52:40.638Z,85.90
2023-04-27T08:55:09.719Z,85.00
2023-04-27T08:57:37.801Z,85.40
2023-04-27T09:00:12.806Z,84.50
2023-04-27T09:02:47.054Z,84.40
2023-04-27T09:05:19.214Z,83.80
2023-04-27T09:08:04.846Z,83.20
2023-04-27T09:10:44.975Z,82.20
2023-04-27T09:13:12.937Z,80.50
2023-04-27T09:15:47.812Z,79.30
2023-04-27T09:18:18.278Z,80.20
2023-04-27T09:20:47.692Z,79.00
2023-04-27T09:23:28.816Z,78.40
2023-04-27T09:25:57.561Z,77.90
2023-04-27T09:28:27.470Z,77.60
2023-04-27T09:30:56.544Z,77.20
2023-04-27T09:33:25.373Z,76.90
2023-04-27T09:35:53.730Z,76.60
2023-04-27T09:38:23.371Z,76.70
2023-04-27T09:40:54.310Z,77.10
2023-04-27T09:43:23.246Z,75.60
2023-04-27T09:45:51.347Z,74.60
2023-04-27T09:48:19.513Z,74.10
2023-04-27T09:50:48.041Z,75.50
2023-04-27T09:53:18.737Z,76.80
2023-04-27T09:55:51.915Z,76.30
2023-04-27T09:58:47.074Z,73.40
2023-04-27T10:01:24.748Z,74.20
2023-04-27T10:04:06.536Z,75.10
2023-04-27T10:07:01.832Z,74.40
2023-04-27T10:09:37.848Z,73.40
2023-04-27T10:12:17.075Z,73.60
2023-04-27T10:14:54.570Z,74.00
2023-04-27T10:17:30.149Z,72.60
2023-04-27T10:19:59.605Z,72.70
2023-04-27T10:22:40.491Z,72.30
2023-04-27T10:25:17.916Z,72.70
2023-04-27T10:27:49.513Z,72.60
2023-04-27T10:30:20.422Z,72.30
2023-04-27T10:32:53.464Z,72.60
2023-04-27T10:35:22.595Z,72.80
2023-04-27T10:37:52.101Z,73.40
2023-04-27T10:40:20.339Z,72.80
2023-04-27T10:42:49.499Z,72.30
2023-04-27T10:45:31.455Z,71.60
2023-04-27T10:48:01.867Z,69.20
2023-04-27T10:50:32.039Z,71.70
2023-04-27T10:53:05.680Z,71.60
2023-04-27T10:55:35.020Z,72.60
2023-04-27T10:58:04.674Z,72.30
2023-04-27T11:00:36.622Z,70.60
2023-04-27T11:03:17.114Z,68.90
2023-04-27T11:05:46.738Z,67.90
2023-04-27T11:08:16.594Z,68.20
2023-04-27T11:10:46.299Z,69.80
2023-04-27T11:13:16.564Z,70.20
2023-04-27T11:15:51.108Z,67.90
2023-04-27T11:18:20.616Z,66.70
2023-04-27T11:20:50.921Z,65.80
2023-04-27T11:23:26.906Z,66.10
2023-04-27T11:25:55.300Z,66.20
2023-04-27T11:28:26.187Z,66.60
2023-04-27T11:30:59.584Z,66.90
2023-04-27T11:33:28.208Z,65.50
2023-04-27T11:35:57.454Z,66.90
2023-04-27T11:38:26.546Z,67.20
2023-04-27T11:41:02.753Z,67.00
2023-04-27T11:43:30.962Z,67.70
2023-04-27T11:46:04.075Z,67.50
2023-04-27T11:48:32.120Z,67.40
2023-04-27T11:51:01.349Z,65.60
2023-04-27T11:53:34.308Z,67.00
2023-04-27T11:56:05.154Z,67.90
2023-04-27T11:58:35.049Z,67.80
2023-04-27T12:01:05.152Z,67.70
2023-04-27T12:03:34.361Z,68.50
2023-04-27T12:08:34.798Z,68.60
2023-04-27T12:11:02.940Z,66.50
2023-04-27T12:13:31.615Z,67.20
2023-04-27T12:16:01.019Z,67.40
2023-04-27T12:18:31.169Z,67.00
2023-04-27T12:21:03.106Z,68.60
2023-04-27T12:23:31.617Z,69.50
2023-04-27T12:25:59.689Z,69.30
2023-04-27T12:28:29.234Z,68.80
2023-04-27T12:31:00.400Z,70.00
2023-04-27T12:33:30.081Z,67.80
2023-04-27T12:35:58.156Z,68.80
2023-04-27T12:38:26.454Z,68.50
2023-04-27T12:40:54.768Z,70.20
2023-04-27T12:43:22.933Z,70.50
2023-04-27T12:45:51.078Z,68.90
2023-04-27T12:48:19.618Z,68.20
2023-04-27T12:50:49.049Z,67.70
2023-04-27T12:53:17.277Z,66.80
2023-04-27T12:55:46.981Z,66.90
2023-04-27T12:58:15.140Z,65.90
2023-04-27T13:00:43.264Z,66.80
2023-04-27T13:03:11.820Z,67.50
2023-04-27T13:05:39.988Z,68.30
2023-04-27T13:08:09.431Z,67.00
2023-04-27T13:10:38.782Z,67.60
2023-04-27T13:13:08.906Z,67.60
2023-04-27T13:15:37.724Z,65.50
2023-04-27T13:18:06.599Z,65.50
2023-04-27T13:20:34.837Z,65.00
2023-04-27T13:23:05.460Z,64.60
2023-04-27T13:25:38.045Z,65.60
2023-04-27T13:28:09.120Z,67.50
2023-04-27T13:30:37.375Z,66.30
2023-04-27T13:33:20.962Z,65.80
2023-04-27T13:35:50.415Z,65.60
2023-04-27T13:38:21.467Z,65.30
2023-04-27T13:40:50.980Z,65.50
2023-04-27T13:43:19.695Z,65.10
2023-04-27T13:45:49.462Z,64.70
2023-04-27T13:48:17.577Z,64.00
2023-04-27T13:50:45.729Z,64.80
2023-04-27T13:53:17.947Z,65.70
2023-04-27T13:55:47.811Z,65.90
2023-04-27T13:58:17.429Z,67.40
2023-04-27T14:00:49.150Z,67.70
2023-04-27T14:03:17.672Z,68.00
2023-04-27T14:05:51.290Z,68.00
2023-04-27T14:08:19.898Z,68.70
2023-04-27T14:10:48.155Z,68.40
2023-04-27T14:13:19.203Z,68.20
2023-04-27T14:15:47.278Z,68.30
2023-04-27T14:18:15.681Z,68.70
2023-04-27T14:20:46.939Z,69.10
2023-04-27T14:23:15.011Z,68.40
2023-04-27T14:25:43.296Z,67.40
2023-04-27T14:28:14.780Z,66.70
2023-04-27T14:30:44.215Z,65.80
2023-04-27T14:33:12.578Z,66.10
2023-04-27T14:35:40.749Z,66.50
2023-04-27T14:38:08.850Z,67.20
2023-04-27T14:40:36.986Z,67.50
2023-04-27T14:43:05.097Z,67.60
2023-04-27T14:45:43.736Z,67.70
2023-04-27T14:48:20.411Z,67.90
2023-04-27T14:50:48.766Z,68.10
2023-04-27T14:53:17.291Z,68.30
2023-04-27T14:55:48.290Z,68.60
2023-04-27T14:58:16.506Z,68.60
2023-04-27T15:00:44.624Z,68.70
2023-04-27T15:03:12.937Z,68.50
2023-04-27T15:05:42.584Z,68.30
2023-04-27T15:08:11.935Z,67.00
2023-04-27T15:10:42.749Z,66.90
2023-04-27T15:13:10.888Z,67.10
2023-04-27T15:15:39.315Z,67.40
2023-04-27T15:18:07.579Z,67.80
2023-04-27T15:20:35.720Z,68.30
2023-04-27T15:23:05.437Z,68.70
2023-04-27T15:25:36.012Z,68.50
2023-04-27T15:28:04.126Z,68.00
2023-04-27T15:30:32.280Z,66.50
2023-04-27T15:33:00.445Z,67.20
2023-04-27T15:35:28.610Z,67.80
2023-04-27T15:37:59.055Z,68.30
2023-04-27T15:40:28.631Z,68.70
2023-04-27T15:42:56.882Z,68.30
2023-04-27T15:45:24.935Z,69.20
2023-04-27T15:47:53.043Z,69.40
2023-04-27T15:50:21.280Z,69.50
2023-04-27T15:52:49.632Z,69.50
2023-04-27T15:55:17.809Z,70.00
2023-04-27T15:57:47.138Z,70.60
2023-04-27T16:00:19.048Z,71.20
2023-04-27T16:02:47.636Z,71.60
2023-04-27T16:05:16.483Z,71.60
2023-04-27T16:07:45.832Z,71.20
2023-04-27T16:10:14.386Z,70.50
2023-04-27T16:12:42.435Z,70.40
2023-04-27T16:15:12.630Z,70.20
2023-04-27T16:17:41.010Z,70.30
2023-04-27T16:20:12.435Z,70.50
2023-04-27T16:22:40.727Z,69.60
2023-04-27T16:25:10.951Z,69.20
2023-04-27T16:27:39.346Z,68.80
2023-04-27T16:30:08.443Z,68.90
2023-04-27T16:32:39.015Z,69.20
2023-04-27T16:35:07.980Z,69.40
2023-04-27T16:37:36.096Z,69.60
2023-04-27T16:40:06.983Z,70.20
2023-04-27T16:42:35.520Z,70.90
2023-04-27T16:45:03.812Z,70.60
2023-04-27T16:47:35.036Z,70.50
2023-04-27T16:50:04.812Z,70.80
2023-04-27T16:52:32.921Z,71.20
2023-04-27T16:55:01.019Z,71.10
2023-04-27T16:57:29.330Z,71.00
2023-04-27T17:00:01.957Z,70.70
2023-04-27T17:02:30.209Z,70.70
2023-04-27T17:04:59.548Z,70.30
2023-04-27T17:07:32.681Z,70.30
2023-04-27T17:10:01.335Z,70.40
2023-04-27T17:12:29.559Z,70.40
2023-04-27T17:14:57.716Z,70.60
2023-04-27T17:17:25.830Z,71.00
2023-04-27T17:19:53.934Z,71.70
2023-04-27T17:22:21.962Z,72.10
2023-04-27T17:24:51.536Z,72.60
2023-04-27T17:27:20.115Z,73.10
2023-04-27T17:29:48.219Z,73.60
2023-04-27T17:32:16.526Z,73.90
2023-04-27T17:34:45.271Z,74.10
2023-04-27T17:37:14.740Z,74.60
2023-04-27T17:39:42.768Z,74.90
2023-04-27T17:42:12.917Z,75.00
2023-04-27T17:44:42.210Z,75.20
2023-04-27T17:47:10.618Z,75.20
2023-04-27T17:49:41.533Z,75.50
2023-04-27T17:52:09.744Z,75.90
2023-04-27T17:54:37.893Z,76.30
2023-04-27T17:57:06.071Z,76.70
2023-04-27T17:59:37.365Z,77.20
2023-04-27T18:02:05.690Z,77.60
2023-04-27T18:04:33.972Z,78.80
2023-04-27T18:07:02.136Z,78.10
2023-04-27T18:09:32.719Z,78.20
2023-04-27T18:12:02.683Z,78.40
2023-04-27T18:14:31.063Z,78.50
2023-04-27T18:17:00.663Z,78.70
2023-04-27T18:19:28.742Z,79.00
2023-04-27T18:21:56.854Z,79.30
2023-04-27T18:24:25.335Z,79.70
2023-04-27T18:26:53.473Z,79.90
2023-04-27T18:29:21.587Z,79.90
2023-04-27T18:32:01.834Z,80.10
2023-04-27T18:34:31.322Z,80.50
2023-04-27T18:37:00.627Z,80.80
2023-04-27T18:39:28.860Z,81.10
2023-04-27T18:41:57.444Z,80.90
2023-04-27T18:44:25.555Z,81.60
2023-04-27T18:46:53.638Z,80.90
2023-04-27T18:49:21.800Z,81.50
2023-04-27T18:51:51.320Z,80.80
2023-04-27T18:54:19.495Z,81.10
2023-04-27T18:56:50.728Z,81.20
2023-04-27T18:59:18.763Z,81.40
2023-04-27T19:01:48.616Z,81.60
2023-04-27T19:04:17.417Z,81.90
2023-04-27T19:06:47.305Z,82.00
2023-04-27T19:09:18.267Z,82.20
2023-04-27T19:11:49.455Z,82.60
2023-04-27T19:14:20.766Z,83.00
2023-04-27T19:16:48.818Z,83.10
2023-04-27T19:19:17.449Z,83.30
2023-04-27T19:21:47.248Z,83.30
2023-04-27T19:24:17.430Z,83.90
2023-04-27T19:26:46.674Z,83.90
2023-04-27T19:29:14.927Z,84.30
2023-04-27T19:31:43.247Z,84.60
2023-04-27T19:34:11.404Z,84.90
2023-04-27T19:36:48.804Z,85.30
2023-04-27T19:39:20.634Z,85.60
2023-04-27T19:41:48.737Z,86.30
2023-04-27T19:44:16.824Z,86.40
2023-04-27T19:46:45.416Z,87.10
2023-04-27T19:49:14.312Z,87.70
2023-04-27T19:51:43.021Z,87.90
2023-04-27T19:54:11.707Z,88.10
2023-04-27T19:56:41.350Z,88.30
2023-04-27T19:59:09.625Z,88.60
2023-04-27T20:01:38.045Z,88.80
2023-04-27T20:04:06.694Z,88.80
2023-04-27T20:06:35.201Z,89.00
2023-04-27T20:09:03.861Z,89.10
2023-04-27T20:11:31.980Z,90.00
2023-04-27T20:14:01.437Z,89.30
2023-04-27T20:16:29.465Z,89.60
2023-04-27T20:18:57.546Z,89.50
2023-04-27T20:21:26.284Z,89.40
2023-04-27T20:23:54.334Z,89.50
2023-04-27T20:26:22.639Z,89.50
2023-04-27T20:28:52.635Z,89.50
2023-04-27T20:31:22.180Z,89.50
2023-04-27T20:33:50.368Z,89.50
2023-04-27T20:36:18.863Z,89.50
2023-04-27T20:38:48.791Z,89.70
2023-04-27T20:41:17.417Z,90.00
2023-04-27T20:43:45.581Z,90.20
2023-04-27T20:46:13.818Z,90.40
2023-04-27T20:48:43.358Z,90.30
2023-04-27T20:51:11.419Z,90.50
2023-04-27T20:53:40.071Z,90.50
2023-04-27T20:56:11.822Z,90.50
2023-04-27T20:58:39.878Z,90.60
2023-04-27T21:01:07.818Z,90.60
2023-04-27T21:03:36.118Z,91.10
2023-04-27T21:06:05.949Z,90.70
2023-04-27T21:08:34.770Z,90.70
2023-04-27T21:11:02.788Z,90.70
2023-04-27T21:13:30.802Z,90.70
2023-04-27T21:15:58.756Z,90.70
2023-04-27T21:18:30.174Z,90.80
2023-04-27T21:21:01.448Z,90.80
2023-04-27T21:23:30.775Z,90.90
2023-04-27T21:25:59.826Z,91.00
2023-04-27T21:28:27.888Z,91.20
2023-04-27T21:30:58.657Z,91.20
2023-04-27T21:33:26.690Z,91.40
2023-04-27T21:35:54.857Z,91.50
2023-04-27T21:38:22.825Z,91.80
2023-04-27T21:40:52.257Z,92.10
2023-04-27T21:43:20.446Z,92.20
2023-04-27T21:45:48.789Z,92.30
2023-04-27T21:48:16.825Z,92.40
2023-04-27T21:50:45.216Z,92.60
2023-04-27T21:53:13.244Z,92.60
2023-04-27T21:55:41.179Z,92.70
2023-04-27T21:58:10.556Z,92.90
2023-04-27T22:00:39.452Z,92.90
2023-04-27T22:03:07.618Z,93.00
2023-04-27T22:05:39.939Z,93.10
2023-04-27T22:08:08.984Z,93.40
2023-04-27T22:10:37.406Z,93.30
2023-04-27T22:13:17.708Z,93.50
2023-04-27T22:15:49.320Z,93.90
2023-04-27T22:18:17.760Z,94.30
2023-04-27T22:20:47.292Z,94.70
2023-04-27T22:23:15.414Z,95.10
2023-04-27T22:25:43.585Z,95.40
2023-04-27T22:28:12.151Z,95.70
2023-04-27T22:30:42.025Z,95.80
2023-04-27T22:33:11.847Z,96.00
2023-04-27T22:35:40.201Z,96.20
2023-04-27T22:38:08.455Z,96.40
2023-04-27T22:40:36.975Z,96.40
2023-04-27T22:43:04.949Z,96.40
2023-04-27T22:45:33.112Z,96.50
2023-04-27T22:48:01.239Z,96.50
2023-04-27T22:50:31.630Z,96.60
2023-04-27T22:53:00.547Z,96.90
2023-04-27T22:55:28.662Z,96.90
2023-04-27T22:57:56.795Z,96.80
2023-04-27T23:00:24.929Z,96.70
2023-04-27T23:02:53.290Z,96.90
2023-04-27T23:05:21.482Z,97.20
2023-04-27T23:07:51.754Z,97.30
2023-04-27T23:10:19.772Z,97.50
2023-04-27T23:12:47.992Z,97.60
2023-04-27T23:15:16.448Z,97.60
2023-04-27T23:17:44.538Z,97.60
2023-04-27T23:20:27.490Z,97.60
2023-04-27T23:22:58.374Z,97.70
2023-04-27T23:25:26.406Z,98.00
2023-04-27T23:27:54.441Z,98.10
2023-04-27T23:30:22.885Z,98.20
2023-04-27T23:32:50.919Z,98.60
2023-04-27T23:35:19.086Z,98.80
2023-04-27T23:37:47.143Z,98.90
2023-04-27T23:40:16.778Z,99.00
2023-04-27T23:42:44.903Z,99.30
2023-04-27T23:45:13.309Z,99.90
2023-04-27T23:47:41.554Z,99.90
2023-04-27T23:50:10.648Z,99.90
2023-04-27T23:52:38.638Z,99.90
2023-04-27T23:55:07.765Z,99.90
2023-04-27T23:57:37.201Z,99.90
